This is the latest recevied weather packets stored in our database for station/object LX2ZZ-13. If no packets are shown the sender has not sent any weather packets the latest 10 day(s).
| Time | Temp. | Humidity | Pressure | Rain* | Wind** | Luminosity | Snow |
|---|---|---|---|---|---|---|---|
| 1778276122 | 8.33° C | 84% | 1017.3 hPa | 0 mm | - | - | - |
| 1778274916 | 8.89° C | 83% | 1017 hPa | 0 mm | - | - | - |
| 1778268944 | 9.44° C | 85% | 1016.5 hPa | 0 mm | - | - | - |
| 1778268341 | 10° C | 82% | 1016.4 hPa | 0 mm | - | - | - |
| 1778266532 | 12.78° C | 70% | 1015.9 hPa | 0 mm | - | - | - |
| 1778259958 | 17.78° C | 49% | 1015 hPa | 0 mm | - | - | - |
| 1778259355 | 18.33° C | 50% | 1015.1 hPa | 0 mm | - | - | - |
| 1778257546 | 18.89° C | 50% | 1015 hPa | 0 mm | - | - | - |
| 1778256943 | 18.89° C | 51% | 1015 hPa | 0 mm | - | - | - |
| 1778246750 | 16.67° C | 57% | 1015.7 hPa | 0 mm | - | - | - |
| 1778246147 | 16.67° C | 57% | 1015.8 hPa | 0 mm | - | - | - |
| 1778245544 | 16.67° C | 55% | 1015.9 hPa | 0 mm | - | - | - |
| 1778242528 | 17.78° C | 53% | 1015.8 hPa | 0 mm | - | - | - |
| 1778241925 | 18.33° C | 50% | 1015.8 hPa | 0 mm | - | - | - |
| 1778241322 | 16.67° C | 53% | 1015.9 hPa | 0 mm | - | - | - |
| 1778238970 | 18.33° C | 48% | 1016.1 hPa | 0 mm | - | - | - |
| 1778237160 | 17.78° C | 51% | 1016.3 hPa | 0 mm | - | - | - |
| 1778234205 | 17.78° C | 55% | 1016.4 hPa | 0 mm | - | - | - |
| 1778226968 | 13.33° C | 74% | 1016.6 hPa | 0 mm | - | - | - |
| 1778225762 | 12.78° C | 76% | 1016.6 hPa | 0 mm | - | - | - |
| 1778220937 | 9.44° C | 99% | 1016.3 hPa | 0 mm | - | - | - |
| 1778215569 | 6.67° C | 98% | 1016 hPa | 0 mm | - | - | - |
| 1778214965 | 7.22° C | 98% | 1015.8 hPa | 0 mm | - | - | - |
| 1778211950 | 7.78° C | 98% | 1015.7 hPa | 0 mm | - | - | - |
| 1778208332 | 8.33° C | 98% | 1015.6 hPa | 0 mm | - | - | - |
* Rain latest hour (hover to see other rain measurements)
** Current wind speed in m/s (hover to see current wind gust speed)